<?xml version="1.0" encoding="UTF-8" standalone="no" ?>
<gpx xmlns="http://www.topografix.com/GPX/1/1" xmlns:xsi="http://www.w3.org/2001/XMLSchema-instance" xsi:schemaLocation="http://www.topografix.com/GPX/1/1 http://www.topografix.com/GPX/1/1/gpx.xsd" version="1.1" creator="VisuGPX - https://www.visugpx.com">
  <metadata>
    <name>Balade</name>
    <desc><![CDATA[essai de transfer de tracé en itinéraire]]></desc>
  </metadata>
  <trk>
    <name><![CDATA[Tracé actuel: 04 AVR 2013 05:48]]></name>
    <trkseg>
      <trkpt lat="49.07496" lon="7.13493">
        <ele>241.43</ele>
        <time>2013-04-04T03:48:00Z</time>
      </trkpt>
      <trkpt lat="49.07496" lon="7.13493">
        <ele>241.43</ele>
        <time>2013-04-04T03:48:01Z</time>
      </trkpt>
      <trkpt lat="49.07496" lon="7.13492">
        <ele>242.39</ele>
        <time>2013-04-04T03:48:02Z</time>
      </trkpt>
      <trkpt lat="49.07497" lon="7.13491">
        <ele>240.95</ele>
        <time>2013-04-04T03:48:04Z</time>
      </trkpt>
      <trkpt lat="49.07517" lon="7.13534">
        <ele>239.51</ele>
        <time>2013-04-04T03:48:28Z</time>
      </trkpt>
      <trkpt lat="49.07522" lon="7.13536">
        <ele>239.02</ele>
        <time>2013-04-04T03:48:32Z</time>
      </trkpt>
      <trkpt lat="49.07529" lon="7.13541">
        <ele>236.62</ele>
        <time>2013-04-04T03:48:37Z</time>
      </trkpt>
      <trkpt lat="49.07535" lon="7.13543">
        <ele>233.26</ele>
        <time>2013-04-04T03:48:43Z</time>
      </trkpt>
      <trkpt lat="49.07542" lon="7.13547">
        <ele>231.33</ele>
        <time>2013-04-04T03:48:48Z</time>
      </trkpt>
      <trkpt lat="49.07554" lon="7.13553">
        <ele>227.97</ele>
        <time>2013-04-04T03:48:57Z</time>
      </trkpt>
      <trkpt lat="49.07564" lon="7.13558">
        <ele>224.61</ele>
        <time>2013-04-04T03:49:05Z</time>
      </trkpt>
      <trkpt lat="49.07573" lon="7.13563">
        <ele>221.24</ele>
        <time>2013-04-04T03:49:13Z</time>
      </trkpt>
      <trkpt lat="49.07575" lon="7.13564">
        <ele>218.36</ele>
        <time>2013-04-04T03:49:24Z</time>
      </trkpt>
      <trkpt lat="49.07579" lon="7.13567">
        <ele>215.47</ele>
        <time>2013-04-04T03:49:44Z</time>
      </trkpt>
      <trkpt lat="49.07593" lon="7.13579">
        <ele>214.03</ele>
        <time>2013-04-04T03:50:03Z</time>
      </trkpt>
      <trkpt lat="49.07618" lon="7.13593">
        <ele>214.03</ele>
        <time>2013-04-04T03:50:27Z</time>
      </trkpt>
      <trkpt lat="49.07623" lon="7.13595">
        <ele>214.03</ele>
        <time>2013-04-04T03:50:55Z</time>
      </trkpt>
      <trkpt lat="49.07625" lon="7.13596">
        <ele>214.51</ele>
        <time>2013-04-04T03:50:56Z</time>
      </trkpt>
      <trkpt lat="49.07658" lon="7.13615">
        <ele>213.55</ele>
        <time>2013-04-04T03:51:22Z</time>
      </trkpt>
      <trkpt lat="49.07682" lon="7.13624">
        <ele>211.63</ele>
        <time>2013-04-04T03:51:43Z</time>
      </trkpt>
      <trkpt lat="49.07719" lon="7.13626">
        <ele>210.67</ele>
        <time>2013-04-04T03:52:09Z</time>
      </trkpt>
      <trkpt lat="49.07739" lon="7.1362">
        <ele>210.19</ele>
        <time>2013-04-04T03:52:31Z</time>
      </trkpt>
      <trkpt lat="49.07763" lon="7.13605">
        <ele>210.19</ele>
        <time>2013-04-04T03:52:58Z</time>
      </trkpt>
      <trkpt lat="49.0777" lon="7.136">
        <ele>209.22</ele>
        <time>2013-04-04T03:53:15Z</time>
      </trkpt>
      <trkpt lat="49.07771" lon="7.136">
        <ele>209.22</ele>
        <time>2013-04-04T03:53:16Z</time>
      </trkpt>
      <trkpt lat="49.07775" lon="7.13598">
        <ele>210.67</ele>
        <time>2013-04-04T03:53:20Z</time>
      </trkpt>
      <trkpt lat="49.07777" lon="7.13597">
        <ele>211.15</ele>
        <time>2013-04-04T03:53:21Z</time>
      </trkpt>
      <trkpt lat="49.07789" lon="7.13589">
        <ele>210.67</ele>
        <time>2013-04-04T03:53:34Z</time>
      </trkpt>
      <trkpt lat="49.07801" lon="7.13583">
        <ele>210.67</ele>
        <time>2013-04-04T03:53:54Z</time>
      </trkpt>
      <trkpt lat="49.07807" lon="7.1358">
        <ele>210.67</ele>
        <time>2013-04-04T03:54:12Z</time>
      </trkpt>
      <trkpt lat="49.0782" lon="7.13572">
        <ele>210.67</ele>
        <time>2013-04-04T03:54:36Z</time>
      </trkpt>
      <trkpt lat="49.07849" lon="7.13558">
        <ele>209.7</ele>
        <time>2013-04-04T03:55:00Z</time>
      </trkpt>
      <trkpt lat="49.07883" lon="7.13551">
        <ele>209.22</ele>
        <time>2013-04-04T03:55:29Z</time>
      </trkpt>
      <trkpt lat="49.0792" lon="7.13541">
        <ele>208.74</ele>
        <time>2013-04-04T03:55:57Z</time>
      </trkpt>
      <trkpt lat="49.07919" lon="7.13544">
        <ele>209.22</ele>
        <time>2013-04-04T03:56:07Z</time>
      </trkpt>
      <trkpt lat="49.07923" lon="7.13536">
        <ele>209.22</ele>
        <time>2013-04-04T03:56:12Z</time>
      </trkpt>
      <trkpt lat="49.07923" lon="7.1353">
        <ele>208.74</ele>
        <time>2013-04-04T03:56:15Z</time>
      </trkpt>
      <trkpt lat="49.07922" lon="7.13499">
        <ele>209.7</ele>
        <time>2013-04-04T03:56:36Z</time>
      </trkpt>
      <trkpt lat="49.07922" lon="7.13493">
        <ele>209.7</ele>
        <time>2013-04-04T03:56:39Z</time>
      </trkpt>
      <trkpt lat="49.07925" lon="7.13482">
        <ele>210.19</ele>
        <time>2013-04-04T03:56:45Z</time>
      </trkpt>
      <trkpt lat="49.07933" lon="7.13452">
        <ele>211.63</ele>
        <time>2013-04-04T03:57:05Z</time>
      </trkpt>
      <trkpt lat="49.07959" lon="7.13418">
        <ele>214.51</ele>
        <time>2013-04-04T03:57:32Z</time>
      </trkpt>
      <trkpt lat="49.07973" lon="7.1339">
        <ele>216.91</ele>
        <time>2013-04-04T03:57:55Z</time>
      </trkpt>
      <trkpt lat="49.07976" lon="7.13378">
        <ele>217.88</ele>
        <time>2013-04-04T03:58:17Z</time>
      </trkpt>
      <trkpt lat="49.07992" lon="7.1335">
        <ele>219.8</ele>
        <time>2013-04-04T03:58:35Z</time>
      </trkpt>
      <trkpt lat="49.07998" lon="7.13345">
        <ele>221.24</ele>
        <time>2013-04-04T03:58:55Z</time>
      </trkpt>
      <trkpt lat="49.08027" lon="7.13325">
        <ele>221.24</ele>
        <time>2013-04-04T03:59:18Z</time>
      </trkpt>
      <trkpt lat="49.08061" lon="7.13307">
        <ele>221.24</ele>
        <time>2013-04-04T03:59:43Z</time>
      </trkpt>
      <trkpt lat="49.08099" lon="7.13288">
        <ele>222.2</ele>
        <time>2013-04-04T04:00:11Z</time>
      </trkpt>
      <trkpt lat="49.08132" lon="7.1327">
        <ele>223.16</ele>
        <time>2013-04-04T04:00:36Z</time>
      </trkpt>
      <trkpt lat="49.08172" lon="7.13255">
        <ele>221.72</ele>
        <time>2013-04-04T04:01:04Z</time>
      </trkpt>
      <trkpt lat="49.08198" lon="7.13243">
        <ele>221.24</ele>
        <time>2013-04-04T04:01:26Z</time>
      </trkpt>
      <trkpt lat="49.08242" lon="7.13221">
        <ele>221.24</ele>
        <time>2013-04-04T04:01:57Z</time>
      </trkpt>
      <trkpt lat="49.08284" lon="7.13202">
        <ele>222.2</ele>
        <time>2013-04-04T04:02:28Z</time>
      </trkpt>
      <trkpt lat="49.08323" lon="7.13182">
        <ele>222.2</ele>
        <time>2013-04-04T04:02:59Z</time>
      </trkpt>
      <trkpt lat="49.0834" lon="7.13172">
        <ele>222.68</ele>
        <time>2013-04-04T04:03:19Z</time>
      </trkpt>
      <trkpt lat="49.08378" lon="7.13151">
        <ele>222.68</ele>
        <time>2013-04-04T04:03:46Z</time>
      </trkpt>
      <trkpt lat="49.08414" lon="7.13124">
        <ele>223.16</ele>
        <time>2013-04-04T04:04:14Z</time>
      </trkpt>
      <trkpt lat="49.0845" lon="7.13091">
        <ele>225.09</ele>
        <time>2013-04-04T04:04:45Z</time>
      </trkpt>
      <trkpt lat="49.08454" lon="7.13087">
        <ele>225.09</ele>
        <time>2013-04-04T04:04:49Z</time>
      </trkpt>
      <trkpt lat="49.08483" lon="7.13049">
        <ele>228.45</ele>
        <time>2013-04-04T04:05:17Z</time>
      </trkpt>
      <trkpt lat="49.0851" lon="7.13008">
        <ele>229.89</ele>
        <time>2013-04-04T04:05:46Z</time>
      </trkpt>
      <trkpt lat="49.08517" lon="7.1298">
        <ele>230.37</ele>
        <time>2013-04-04T04:06:02Z</time>
      </trkpt>
      <trkpt lat="49.08492" lon="7.12956">
        <ele>233.74</ele>
        <time>2013-04-04T04:06:28Z</time>
      </trkpt>
      <trkpt lat="49.08471" lon="7.12944">
        <ele>234.7</ele>
        <time>2013-04-04T04:06:54Z</time>
      </trkpt>
      <trkpt lat="49.08438" lon="7.12922">
        <ele>237.1</ele>
        <time>2013-04-04T04:07:22Z</time>
      </trkpt>
      <trkpt lat="49.08397" lon="7.12899">
        <ele>239.02</ele>
        <time>2013-04-04T04:07:55Z</time>
      </trkpt>
      <trkpt lat="49.08362" lon="7.12877">
        <ele>240.47</ele>
        <time>2013-04-04T04:08:23Z</time>
      </trkpt>
      <trkpt lat="49.08325" lon="7.12854">
        <ele>242.39</ele>
        <time>2013-04-04T04:08:52Z</time>
      </trkpt>
      <trkpt lat="49.08315" lon="7.1285">
        <ele>242.39</ele>
        <time>2013-04-04T04:09:03Z</time>
      </trkpt>
      <trkpt lat="49.08306" lon="7.12846">
        <ele>242.87</ele>
        <time>2013-04-04T04:09:09Z</time>
      </trkpt>
      <trkpt lat="49.08262" lon="7.12825">
        <ele>244.31</ele>
        <time>2013-04-04T04:09:42Z</time>
      </trkpt>
      <trkpt lat="49.08226" lon="7.12815">
        <ele>245.27</ele>
        <time>2013-04-04T04:10:09Z</time>
      </trkpt>
      <trkpt lat="49.08204" lon="7.12826">
        <ele>246.72</ele>
        <time>2013-04-04T04:10:30Z</time>
      </trkpt>
      <trkpt lat="49.08186" lon="7.12885">
        <ele>245.27</ele>
        <time>2013-04-04T04:11:01Z</time>
      </trkpt>
      <trkpt lat="49.08168" lon="7.12944">
        <ele>243.83</ele>
        <time>2013-04-04T04:11:29Z</time>
      </trkpt>
      <trkpt lat="49.08149" lon="7.1299">
        <ele>242.87</ele>
        <time>2013-04-04T04:11:52Z</time>
      </trkpt>
      <trkpt lat="49.08131" lon="7.13027">
        <ele>243.35</ele>
        <time>2013-04-04T04:12:12Z</time>
      </trkpt>
      <trkpt lat="49.08129" lon="7.13029">
        <ele>243.35</ele>
        <time>2013-04-04T04:12:14Z</time>
      </trkpt>
      <trkpt lat="49.08128" lon="7.13031">
        <ele>243.35</ele>
        <time>2013-04-04T04:12:15Z</time>
      </trkpt>
      <trkpt lat="49.0812" lon="7.13044">
        <ele>243.35</ele>
        <time>2013-04-04T04:12:23Z</time>
      </trkpt>
      <trkpt lat="49.08118" lon="7.13044">
        <ele>243.83</ele>
        <time>2013-04-04T04:12:24Z</time>
      </trkpt>
      <trkpt lat="49.08117" lon="7.13044">
        <ele>243.35</ele>
        <time>2013-04-04T04:12:25Z</time>
      </trkpt>
      <trkpt lat="49.08116" lon="7.13045">
        <ele>243.35</ele>
        <time>2013-04-04T04:12:26Z</time>
      </trkpt>
      <trkpt lat="49.08114" lon="7.13046">
        <ele>243.35</ele>
        <time>2013-04-04T04:12:27Z</time>
      </trkpt>
      <trkpt lat="49.08113" lon="7.13047">
        <ele>243.35</ele>
        <time>2013-04-04T04:12:28Z</time>
      </trkpt>
      <trkpt lat="49.08085" lon="7.13078">
        <ele>243.35</ele>
        <time>2013-04-04T04:12:54Z</time>
      </trkpt>
      <trkpt lat="49.08053" lon="7.13077">
        <ele>246.23</ele>
        <time>2013-04-04T04:13:18Z</time>
      </trkpt>
      <trkpt lat="49.08018" lon="7.13098">
        <ele>246.72</ele>
        <time>2013-04-04T04:13:45Z</time>
      </trkpt>
      <trkpt lat="49.07981" lon="7.13125">
        <ele>245.27</ele>
        <time>2013-04-04T04:14:12Z</time>
      </trkpt>
      <trkpt lat="49.07951" lon="7.13151">
        <ele>243.83</ele>
        <time>2013-04-04T04:14:34Z</time>
      </trkpt>
      <trkpt lat="49.07917" lon="7.13179">
        <ele>241.43</ele>
        <time>2013-04-04T04:14:59Z</time>
      </trkpt>
      <trkpt lat="49.07881" lon="7.13188">
        <ele>239.99</ele>
        <time>2013-04-04T04:15:23Z</time>
      </trkpt>
      <trkpt lat="49.07848" lon="7.13154">
        <ele>241.91</ele>
        <time>2013-04-04T04:15:51Z</time>
      </trkpt>
      <trkpt lat="49.07834" lon="7.13158">
        <ele>242.39</ele>
        <time>2013-04-04T04:16:13Z</time>
      </trkpt>
      <trkpt lat="49.07811" lon="7.13164">
        <ele>242.39</ele>
        <time>2013-04-04T04:16:29Z</time>
      </trkpt>
      <trkpt lat="49.0781" lon="7.13165">
        <ele>242.87</ele>
        <time>2013-04-04T04:16:30Z</time>
      </trkpt>
      <trkpt lat="49.07809" lon="7.13166">
        <ele>242.87</ele>
        <time>2013-04-04T04:16:31Z</time>
      </trkpt>
      <trkpt lat="49.07779" lon="7.13182">
        <ele>243.83</ele>
        <time>2013-04-04T04:16:55Z</time>
      </trkpt>
      <trkpt lat="49.07758" lon="7.13195">
        <ele>242.87</ele>
        <time>2013-04-04T04:17:10Z</time>
      </trkpt>
      <trkpt lat="49.07756" lon="7.13195">
        <ele>242.87</ele>
        <time>2013-04-04T04:17:11Z</time>
      </trkpt>
      <trkpt lat="49.07716" lon="7.13208">
        <ele>241.91</ele>
        <time>2013-04-04T04:17:39Z</time>
      </trkpt>
      <trkpt lat="49.07667" lon="7.13218">
        <ele>241.43</ele>
        <time>2013-04-04T04:18:12Z</time>
      </trkpt>
      <trkpt lat="49.07643" lon="7.13245">
        <ele>239.99</ele>
        <time>2013-04-04T04:18:38Z</time>
      </trkpt>
      <trkpt lat="49.07646" lon="7.13277">
        <ele>238.54</ele>
        <time>2013-04-04T04:19:03Z</time>
      </trkpt>
      <trkpt lat="49.07646" lon="7.13345">
        <ele>235.66</ele>
        <time>2013-04-04T04:19:33Z</time>
      </trkpt>
      <trkpt lat="49.07649" lon="7.13393">
        <ele>232.78</ele>
        <time>2013-04-04T04:19:55Z</time>
      </trkpt>
      <trkpt lat="49.07636" lon="7.13451">
        <ele>229.89</ele>
        <time>2013-04-04T04:20:23Z</time>
      </trkpt>
      <trkpt lat="49.07603" lon="7.13464">
        <ele>227.97</ele>
        <time>2013-04-04T04:20:46Z</time>
      </trkpt>
      <trkpt lat="49.07572" lon="7.1348">
        <ele>226.05</ele>
        <time>2013-04-04T04:21:11Z</time>
      </trkpt>
      <trkpt lat="49.07573" lon="7.13485">
        <ele>226.53</ele>
        <time>2013-04-04T04:21:15Z</time>
      </trkpt>
      <trkpt lat="49.07573" lon="7.13487">
        <ele>226.05</ele>
        <time>2013-04-04T04:21:16Z</time>
      </trkpt>
      <trkpt lat="49.07592" lon="7.13523">
        <ele>225.57</ele>
        <time>2013-04-04T04:21:40Z</time>
      </trkpt>
      <trkpt lat="49.07603" lon="7.13522">
        <ele>224.61</ele>
        <time>2013-04-04T04:21:59Z</time>
      </trkpt>
      <trkpt lat="49.07628" lon="7.13523">
        <ele>223.16</ele>
        <time>2013-04-04T04:22:21Z</time>
      </trkpt>
      <trkpt lat="49.07658" lon="7.13535">
        <ele>219.8</ele>
        <time>2013-04-04T04:22:42Z</time>
      </trkpt>
      <trkpt lat="49.07665" lon="7.13585">
        <ele>216.91</ele>
        <time>2013-04-04T04:23:06Z</time>
      </trkpt>
      <trkpt lat="49.07664" lon="7.13613">
        <ele>214.99</ele>
        <time>2013-04-04T04:23:20Z</time>
      </trkpt>
      <trkpt lat="49.07662" lon="7.13614">
        <ele>214.99</ele>
        <time>2013-04-04T04:23:21Z</time>
      </trkpt>
      <trkpt lat="49.07661" lon="7.13615">
        <ele>215.47</ele>
        <time>2013-04-04T04:23:22Z</time>
      </trkpt>
      <trkpt lat="49.07659" lon="7.13615">
        <ele>214.99</ele>
        <time>2013-04-04T04:23:23Z</time>
      </trkpt>
      <trkpt lat="49.07657" lon="7.13615">
        <ele>214.99</ele>
        <time>2013-04-04T04:23:24Z</time>
      </trkpt>
      <trkpt lat="49.07617" lon="7.13601">
        <ele>216.43</ele>
        <time>2013-04-04T04:23:52Z</time>
      </trkpt>
      <trkpt lat="49.07587" lon="7.13582">
        <ele>216.91</ele>
        <time>2013-04-04T04:24:16Z</time>
      </trkpt>
      <trkpt lat="49.07555" lon="7.13561">
        <ele>217.88</ele>
        <time>2013-04-04T04:24:41Z</time>
      </trkpt>
      <trkpt lat="49.07521" lon="7.13541">
        <ele>219.8</ele>
        <time>2013-04-04T04:25:08Z</time>
      </trkpt>
      <trkpt lat="49.07498" lon="7.13546">
        <ele>223.16</ele>
        <time>2013-04-04T04:25:31Z</time>
      </trkpt>
      <trkpt lat="49.07494" lon="7.13548">
        <ele>222.68</ele>
        <time>2013-04-04T04:25:51Z</time>
      </trkpt>
      <trkpt lat="49.07493" lon="7.13547">
        <ele>224.12</ele>
        <time>2013-04-04T04:26:01Z</time>
      </trkpt>
      <trkpt lat="49.07503" lon="7.13542">
        <ele>223.64</ele>
        <time>2013-04-04T04:26:07Z</time>
      </trkpt>
    </trkseg>
  </trk>
</gpx>